Time;durP1;ratioP1;P1;durP2;ratioP2;P2;SDS_P1;SDS_P2;PMS_P1;PMS_P2;Temp;Humidity;BMP_temperature;BMP_pressure;BME280_temperature;BME280_humidity;BME280_pressure;Samples;Min_cycle;Max_cycle;Signal;HPM_P1;HPM_P2
2021/11/09 00:01:25;;;;;;;23.25;12.05;;;;;;;3.50;100.00;100991.31;5094303;28;20044;-69
2021/11/09 00:04:00;;;;;;;22.17;11.75;;;;;;;3.45;100.00;100986.13;5093939;28;20469;-69
2021/11/09 00:06:32;;;;;;;21.55;11.88;;;;;;;3.44;100.00;100987.88;5093937;28;20040;-75
2021/11/09 00:09:06;;;;;;;20.33;11.50;;;;;;;3.39;100.00;100987.13;5093995;28;20047;-71
2021/11/09 00:11:36;;;;;;;20.83;11.85;;;;;;;3.45;100.00;100996.66;5093295;28;20035;-72
2021/11/09 00:14:05;;;;;;;21.73;12.32;;;;;;;3.42;100.00;100996.75;5093374;28;20036;-71
2021/11/09 00:16:33;;;;;;;22.10;12.05;;;;;;;3.57;100.00;100998.19;5093414;28;20117;-71
2021/11/09 00:19:02;;;;;;;20.33;11.13;;;;;;;3.47;100.00;100996.63;5093544;28;20458;-71
2021/11/09 00:21:31;;;;;;;17.70;10.90;;;;;;;3.57;100.00;100998.19;5093071;28;20044;-75
2021/11/09 00:24:00;;;;;;;18.33;10.68;;;;;;;3.70;100.00;101007.63;5093322;28;20100;-70
2021/11/09 00:26:32;;;;;;;19.25;10.77;;;;;;;3.54;100.00;101000.91;5093386;28;20500;-72
2021/11/09 00:29:03;;;;;;;17.40;10.77;;;;;;;3.43;100.00;101006.38;5093432;28;20097;-71
2021/11/09 00:31:31;;;;;;;18.63;10.82;;;;;;;3.40;100.00;101009.97;5093018;28;20451;-75
2021/11/09 00:33:59;;;;;;;19.83;11.50;;;;;;;3.54;100.00;101011.44;5093088;28;20047;-71
2021/11/09 00:36:29;;;;;;;21.65;11.13;;;;;;;3.53;100.00;101007.06;5093239;28;20097;-71
2021/11/09 00:38:57;;;;;;;19.35;11.20;;;;;;;3.55;100.00;101003.50;5093315;28;20041;-71
2021/11/09 00:41:25;;;;;;;23.08;11.85;;;;;;;3.54;100.00;100998.25;5093375;28;20484;-71
2021/11/09 00:43:54;;;;;;;19.08;10.68;;;;;;;3.48;100.00;101003.69;5093015;28;20094;-71
2021/11/09 00:46:23;;;;;;;20.13;10.52;;;;;;;3.41;100.00;101011.69;5093102;28;20055;-70
2021/11/09 00:48:52;;;;;;;18.65;10.40;;;;;;;3.34;100.00;101002.16;5093032;28;20578;-69
2021/11/09 00:51:23;;;;;;;16.50;9.82;;;;;;;3.26;100.00;100998.78;5093117;28;20047;-69
2021/11/09 00:53:52;;;;;;;17.52;10.63;;;;;;;3.30;100.00;101010.16;5093206;28;20477;-69
2021/11/09 00:56:20;;;;;;;19.08;10.23;;;;;;;3.36;100.00;101010.03;5093079;28;20044;-71
2021/11/09 00:58:48;;;;;;;16.20;9.60;;;;;;;3.45;100.00;101010.72;5092596;28;20049;-70
2021/11/09 01:01:17;;;;;;;17.27;9.48;;;;;;;3.52;100.00;101014.13;5093070;28;20048;-71
2021/11/09 01:03:46;;;;;;;16.00;9.60;;;;;;;3.47;100.00;101018.59;5092768;28;20099;-71
2021/11/09 01:06:15;;;;;;;20.45;10.50;;;;;;;3.34;100.00;101017.09;5092816;28;20063;-70
2021/11/09 01:08:43;;;;;;;18.27;9.98;;;;;;;3.33;100.00;101016.22;5092843;28;20401;-71
2021/11/09 01:11:11;;;;;;;19.48;10.70;;;;;;;3.38;100.00;101018.81;5093055;28;20040;-70
2021/11/09 01:13:40;;;;;;;19.92;11.38;;;;;;;3.24;100.00;101018.16;5092716;28;20036;-71
2021/11/09 01:16:08;;;;;;;20.70;11.52;;;;;;;3.04;100.00;101016.75;5092966;28;20398;-69
2021/11/09 01:18:42;;;;;;;21.98;11.63;;;;;;;3.03;100.00;101017.66;5092641;28;20048;-71
2021/11/09 01:21:13;;;;;;;18.50;10.73;;;;;;;3.07;100.00;101019.31;5093432;28;20036;-70
2021/11/09 01:23:43;;;;;;;20.70;11.88;;;;;;;2.93;100.00;101023.97;5092999;28;20047;-71
2021/11/09 01:26:12;;;;;;;18.42;11.52;;;;;;;2.76;100.00;101024.25;5092879;28;20044;-71
2021/11/09 01:28:41;;;;;;;19.50;10.43;;;;;;;2.67;100.00;101027.00;5092652;28;20460;-71
2021/11/09 01:31:10;;;;;;;18.70;11.20;;;;;;;2.63;100.00;101027.09;5092588;28;20477;-70
2021/11/09 01:33:39;;;;;;;19.30;10.80;;;;;;;2.65;100.00;101027.94;5092263;28;20055;-71
2021/11/09 01:36:08;;;;;;;19.30;11.05;;;;;;;2.63;100.00;101029.72;5092851;28;20058;-71
2021/11/09 01:38:38;;;;;;;22.60;11.70;;;;;;;2.99;100.00;101030.88;5092749;28;20048;-71
2021/11/09 01:41:08;;;;;;;19.58;10.88;;;;;;;3.21;100.00;101032.28;5096524;28;20044;-70
2021/11/09 01:43:38;;;;;;;20.30;11.50;;;;;;;2.95;100.00;101029.22;5096489;28;20044;-71
2021/11/09 01:46:07;;;;;;;23.38;11.05;;;;;;;2.81;100.00;101027.69;5096559;28;20044;-71
2021/11/09 01:48:36;;;;;;;21.23;12.15;;;;;;;2.79;100.00;101026.81;5096523;28;20128;-76
2021/11/09 01:51:07;;;;;;;22.08;11.38;;;;;;;2.88;100.00;101029.31;5096446;28;20047;-71
2021/11/09 01:53:38;;;;;;;21.77;12.10;;;;;;;2.76;100.00;101024.25;5096597;28;20070;-71
2021/11/09 01:56:09;;;;;;;21.25;12.38;;;;;;;2.96;100.00;101030.94;5096326;28;20044;-70
2021/11/09 01:58:39;;;;;;;20.52;10.57;;;;;;;3.07;100.00;101029.00;5095836;28;20477;-71
2021/11/09 02:01:10;;;;;;;20.95;10.93;;;;;;;3.11;100.00;101033.34;5096023;28;20071;-70
2021/11/09 02:03:42;;;;;;;19.52;11.60;;;;;;;3.20;100.00;101032.31;5096045;28;20469;-71
2021/11/09 02:06:11;;;;;;;22.88;11.57;;;;;;;3.07;100.00;101034.28;5096396;28;20550;-71
2021/11/09 02:08:41;;;;;;;21.63;12.20;;;;;;;3.08;100.00;101036.00;5095853;28;20044;-71
2021/11/09 02:11:11;;;;;;;22.48;12.05;;;;;;;2.91;100.00;101038.06;5095986;28;20044;-71
2021/11/09 02:13:42;;;;;;;17.63;11.48;;;;;;;2.92;100.00;101042.44;5094692;28;20059;-72
2021/11/09 02:16:12;;;;;;;22.60;12.07;;;;;;;3.06;100.00;101048.34;5096061;28;20039;-72
2021/11/09 02:18:40;;;;;;;22.02;11.77;;;;;;;3.15;100.00;101058.75;5095709;28;20044;-72
2021/11/09 02:21:12;;;;;;;21.23;11.82;;;;;;;3.06;100.00;101056.25;5095870;28;20044;-71
2021/11/09 02:23:43;;;;;;;21.42;11.77;;;;;;;3.07;100.00;101063.25;5095896;28;20040;-71
2021/11/09 02:26:13;;;;;;;23.17;11.48;;;;;;;3.06;100.00;101064.16;5095967;28;20048;-71
2021/11/09 02:28:42;;;;;;;22.40;11.93;;;;;;;2.94;100.00;101059.97;5095717;28;20040;-70
2021/11/09 02:31:11;;;;;;;21.83;11.90;;;;;;;2.85;100.00;101057.47;5095855;28;20043;-70
2021/11/09 02:33:40;;;;;;;21.38;11.60;;;;;;;2.74;100.00;101062.91;5095415;28;20066;-70
2021/11/09 02:36:12;;;;;;;24.25;12.32;;;;;;;2.70;100.00;101069.13;5095851;28;20525;-70
2021/11/09 02:38:41;;;;;;;23.80;11.98;;;;;;;2.81;100.00;101069.84;5095702;28;20051;-70
2021/11/09 02:41:09;;;;;;;23.70;11.93;;;;;;;2.79;100.00;101071.59;5095228;28;20044;-69
2021/11/09 02:43:37;;;;;;;21.17;12.13;;;;;;;2.78;100.00;101075.13;5095480;28;20044;-69
2021/11/09 02:49:05;;;;;;;21.05;11.32;;;;;;;2.77;100.00;101085.69;5084361;28;20477;-69
2021/11/09 02:51:40;;;;;;;19.00;11.63;;;;;;;2.66;100.00;101083.22;5095251;28;20043;-69
2021/11/09 02:54:13;;;;;;;19.98;11.32;;;;;;;2.68;100.00;101088.47;5094880;28;20497;-69
2021/11/09 02:56:46;;;;;;;20.50;11.48;;;;;;;2.51;100.00;101096.59;5094619;28;20066;-70
2021/11/09 02:59:30;;;;;;;20.90;11.50;;;;;;;2.30;100.00;101098.63;5094818;28;20079;-69
2021/11/09 03:02:03;;;;;;;19.10;10.60;;;;;;;2.42;100.00;101094.13;5094851;28;20046;-71
2021/11/09 03:04:43;;;;;;;21.63;11.20;;;;;;;2.47;100.00;101106.31;5095076;28;20044;-69
2021/11/09 03:07:24;;;;;;;19.90;11.38;;;;;;;2.38;100.00;101105.56;5094730;28;20044;-70
2021/11/09 03:09:56;;;;;;;22.83;11.95;;;;;;;2.36;100.00;101099.47;5094749;28;20050;-70
2021/11/09 03:12:30;;;;;;;22.65;11.57;;;;;;;2.40;100.00;101104.66;5094831;28;20048;-70
2021/11/09 03:14:59;;;;;;;22.80;11.32;;;;;;;2.18;100.00;101108.47;5094631;28;20065;-71
2021/11/09 03:17:35;;;;;;;22.38;10.90;;;;;;;2.25;100.00;101100.47;5094409;28;20040;-70
2021/11/09 03:20:04;;;;;;;19.80;11.10;;;;;;;2.26;100.00;101102.22;5094456;28;20044;-71
2021/11/09 03:44:48;;;;;;;19.75;9.88;;;;;;;2.50;100.00;101123.84;5094323;28;20044;-75
2021/11/09 03:47:19;;;;;;;15.18;9.02;;;;;;;2.56;100.00;101118.50;5094401;28;20048;-71
2021/11/09 03:49:48;;;;;;;21.35;10.48;;;;;;;2.55;100.00;101129.94;5093685;28;20050;-71
2021/11/09 03:52:21;;;;;;;20.17;10.05;;;;;;;2.44;100.00;101137.09;5093591;28;20503;-71
2021/11/09 03:54:56;;;;;;;17.27;9.53;;;;;;;2.30;100.00;101139.88;5093818;28;20132;-72
2021/11/09 03:57:27;;;;;;;18.75;10.38;;;;;;;2.35;100.00;101142.47;5094428;28;20619;-71
2021/11/09 04:00:06;;;;;;;23.48;10.50;;;;;;;2.27;100.00;101139.94;5093774;28;20469;-71
2021/11/09 04:02:46;;;;;;;21.30;10.98;;;;;;;2.24;100.00;101143.47;5093514;28;20036;-71
2021/11/09 04:05:16;;;;;;;19.17;10.40;;;;;;;2.10;100.00;101140.13;5094065;28;20041;-70
2021/11/09 04:07:51;;;;;;;17.80;9.90;;;;;;;2.06;100.00;101155.97;5093926;28;20051;-70
2021/11/09 04:10:30;;;;;;;17.90;9.90;;;;;;;1.93;100.00;101155.22;5093656;28;20044;-70
2021/11/09 04:13:09;;;;;;;17.33;10.38;;;;;;;2.03;100.00;101158.63;5093520;28;20040;-70
2021/11/09 04:16:06;;;;;;;19.50;9.65;;;;;;;2.02;100.00;101168.28;5093550;28;20040;-70
2021/11/09 04:18:45;;;;;;;19.83;10.77;;;;;;;2.00;100.00;101167.44;5093537;28;20071;-70
2021/11/09 04:21:26;;;;;;;19.02;11.35;;;;;;;2.20;100.00;101164.59;5093695;28;20050;-70
2021/11/09 04:24:20;;;;;;;23.80;13.05;;;;;;;2.13;100.00;101169.06;5091632;28;20131;-70
2021/11/09 04:29:59;;;;;;;22.48;12.18;;;;;;;2.15;100.00;101166.41;5093263;28;20036;-71
2021/11/09 05:02:50;;;;;;;16.83;9.73;;;;;;;2.13;100.00;101198.03;5092910;28;20040;-71
2021/11/09 05:10:54;;;;;;;16.92;9.63;;;;;;;2.12;100.00;101209.41;5092908;28;20127;-73
2021/11/09 05:13:27;;;;;;;19.60;10.48;;;;;;;2.28;100.00;101210.13;5092855;28;20051;-71
2021/11/09 05:15:57;;;;;;;19.60;9.70;;;;;;;2.37;100.00;101220.56;5096484;28;20036;-71
2021/11/09 05:18:26;;;;;;;17.40;10.30;;;;;;;2.40;100.00;101217.00;5097091;28;20043;-71
2021/11/09 05:20:55;;;;;;;19.20;10.77;;;;;;;2.39;100.00;101212.63;5096753;28;20044;-71
2021/11/09 05:23:23;;;;;;;19.55;9.73;;;;;;;2.32;100.00;101217.13;5096909;28;20051;-71
2021/11/09 05:25:52;;;;;;;17.20;10.30;;;;;;;2.33;100.00;101228.53;5096748;28;20532;-77
2021/11/09 05:28:20;;;;;;;20.13;9.60;;;;;;;2.20;100.00;101222.50;5096904;28;20044;-71
2021/11/09 05:30:50;;;;;;;18.27;10.27;;;;;;;2.15;100.00;101233.09;5096825;28;20396;-71
2021/11/09 05:33:22;;;;;;;22.08;11.70;;;;;;;2.10;100.00;101229.59;5096618;28;20075;-71
2021/11/09 05:35:52;;;;;;;24.38;11.98;;;;;;;2.27;100.00;101235.56;5096558;28;20040;-71
2021/11/09 05:38:26;;;;;;;26.63;13.00;;;;;;;2.17;100.00;101239.19;5096569;28;20040;-71
2021/11/09 05:40:56;;;;;;;22.95;12.45;;;;;;;2.07;100.00;101253.34;5096518;28;20043;-72
2021/11/09 05:43:27;;;;;;;38.10;17.52;;;;;;;1.87;100.00;101255.28;5096780;28;20441;-70
2021/11/09 05:45:57;;;;;;;45.33;21.00;;;;;;;2.12;100.00;101256.78;5096374;28;20060;-71
2021/11/09 05:48:27;;;;;;;35.45;17.27;;;;;;;2.37;100.00;101269.72;5096045;28;20048;-71
2021/11/09 05:50:55;;;;;;;29.85;15.00;;;;;;;2.30;100.00;101272.41;5096102;28;20040;-72
2021/11/09 05:53:24;;;;;;;26.95;13.65;;;;;;;2.25;100.00;101278.63;5096270;28;20063;-71
2021/11/09 05:55:52;;;;;;;23.50;12.82;;;;;;;2.26;100.00;101281.22;5096400;28;20036;-71
2021/11/09 05:58:20;;;;;;;23.92;12.32;;;;;;;2.30;100.00;101288.19;5095891;28;20040;-71
2021/11/09 06:00:48;;;;;;;21.98;12.35;;;;;;;2.29;100.00;101291.72;5095233;28;20095;-72
2021/11/09 06:03:19;;;;;;;23.42;11.38;;;;;;;2.33;100.00;101307.50;5095609;28;20481;-72
2021/11/09 06:05:48;;;;;;;20.35;12.20;;;;;;;2.31;100.00;101299.59;5095735;28;20048;-71
2021/11/09 06:08:17;;;;;;;19.35;12.23;;;;;;;2.28;100.00;101311.03;5095644;28;20056;-71
2021/11/09 06:10:46;;;;;;;20.80;11.07;;;;;;;2.23;100.00;101315.50;5095549;28;20044;-70
2021/11/09 06:13:14;;;;;;;24.13;12.27;;;;;;;2.29;100.00;101323.31;5095542;28;20036;-70
2021/11/09 06:15:43;;;;;;;24.80;12.85;;;;;;;2.17;100.00;101327.81;5095726;28;20085;-70
2021/11/09 06:18:11;;;;;;;20.63;12.27;;;;;;;2.14;100.00;101334.00;5095532;28;20040;-71
2021/11/09 06:20:40;;;;;;;22.27;11.98;;;;;;;2.31;100.00;101339.09;5095596;28;20126;-72
2021/11/09 06:23:10;;;;;;;22.08;12.25;;;;;;;2.36;100.00;101344.34;5095217;28;20052;-72
2021/11/09 06:25:39;;;;;;;23.52;12.02;;;;;;;2.55;100.00;101344.13;5095497;28;20383;-71
2021/11/09 06:28:08;;;;;;;21.83;12.10;;;;;;;2.49;100.00;101354.72;5094997;28;20043;-71
2021/11/09 06:30:36;;;;;;;19.70;12.18;;;;;;;2.54;100.00;101357.34;5095803;28;20044;-71
2021/11/09 06:33:04;;;;;;;21.25;12.13;;;;;;;2.47;100.00;101368.81;5095154;28;20366;-71
2021/11/09 06:35:33;;;;;;;23.17;12.60;;;;;;;2.56;100.00;101374.84;5095729;28;20051;-71
2021/11/09 06:38:01;;;;;;;19.90;12.23;;;;;;;2.58;100.00;101378.34;5094936;28;20402;-71
2021/11/09 06:40:32;;;;;;;29.73;14.15;;;;;;;2.59;100.00;101384.47;5095114;28;20074;-71
2021/11/09 06:43:00;;;;;;;23.30;12.25;;;;;;;2.64;100.00;101392.34;5094725;28;20040;-71
2021/11/09 06:45:29;;;;;;;18.15;10.80;;;;;;;2.76;100.00;101394.88;5093882;28;20404;-70
2021/11/09 06:47:57;;;;;;;24.25;12.27;;;;;;;2.80;100.00;101408.00;5094506;28;20055;-75
2021/11/09 06:50:26;;;;;;;23.73;12.10;;;;;;;2.92;100.00;101403.50;5094913;28;20044;-71
2021/11/09 06:52:55;;;;;;;20.33;11.77;;;;;;;2.94;100.00;101414.91;5093405;28;20048;-70
2021/11/09 06:55:23;;;;;;;19.95;12.32;;;;;;;3.11;100.00;101410.31;5094721;28;20043;-71
2021/11/09 06:57:53;;;;;;;25.05;12.82;;;;;;;3.07;100.00;101405.94;5094594;28;20043;-71
2021/11/09 07:00:23;;;;;;;21.65;12.45;;;;;;;3.18;100.00;101417.25;5094233;28;20396;-70
2021/11/09 07:02:52;;;;;;;20.95;11.45;;;;;;;3.37;100.00;101424.06;5094664;28;20093;-71
2021/11/09 07:05:21;;;;;;;20.05;11.52;;;;;;;3.38;100.00;101420.56;5094267;28;20054;-71
2021/11/09 07:07:50;;;;;;;21.95;11.77;;;;;;;3.33;100.00;101425.00;5094393;28;20051;-70
2021/11/09 07:10:21;;;;;;;19.25;12.05;;;;;;;3.44;100.00;101431.00;5094428;28;20064;-70
2021/11/09 07:12:49;;;;;;;18.55;10.63;;;;;;;3.57;100.00;101437.03;5094453;28;20052;-68
2021/11/09 07:15:20;;;;;;;21.98;10.27;;;;;;;3.66;100.00;101443.94;5094559;28;20044;-71
2021/11/09 07:17:50;;;;;;;20.10;10.55;;;;;;;3.63;100.00;101439.56;5094962;28;20064;-70
2021/11/09 07:20:21;;;;;;;21.55;10.60;;;;;;;3.70;100.00;101450.94;5094275;28;20058;-70
2021/11/09 07:22:50;;;;;;;20.85;10.77;;;;;;;3.79;100.00;101453.44;5093677;28;20436;-68
2021/11/09 07:25:19;;;;;;;20.33;10.10;;;;;;;3.87;100.00;101454.22;5094195;28;20115;-69
2021/11/09 07:27:48;;;;;;;18.40;10.10;;;;;;;4.08;100.00;101457.44;5094573;28;20047;-70
2021/11/09 07:30:16;;;;;;;18.08;9.63;;;;;;;4.07;100.00;101464.50;5094161;28;20060;-70
2021/11/09 07:32:46;;;;;;;17.45;10.02;;;;;;;4.14;100.00;101458.22;5094463;28;20477;-70
2021/11/09 07:35:16;;;;;;;18.52;9.45;;;;;;;4.22;100.00;101469.53;5094162;28;20040;-70
2021/11/09 07:37:45;;;;;;;13.35;8.57;;;;;;;4.30;100.00;101474.72;5093568;28;20072;-70
2021/11/09 07:40:14;;;;;;;20.25;9.75;;;;;;;4.37;100.00;101489.59;5093997;28;20052;-69
2021/11/09 07:42:47;;;;;;;15.40;9.77;;;;;;;4.31;100.00;101487.91;5097035;28;20036;-70
2021/11/09 07:45:18;;;;;;;16.75;9.35;;;;;;;4.46;100.00;101484.16;5093785;28;20036;-69
2021/11/09 07:47:49;;;;;;;17.50;9.45;;;;;;;4.64;100.00;101485.66;5094447;28;20048;-70
2021/11/09 07:50:19;;;;;;;18.85;9.25;;;;;;;4.58;100.00;101488.38;5093740;28;20122;-72
2021/11/09 07:52:49;;;;;;;18.02;9.93;;;;;;;4.54;100.00;101498.13;5093776;28;20052;-72
2021/11/09 07:55:18;;;;;;;17.20;9.57;;;;;;;4.67;100.00;101492.66;5093477;28;20126;-73
2021/11/09 07:57:48;;;;;;;16.40;9.07;;;;;;;4.72;100.00;101496.06;5092106;28;20782;-73
2021/11/09 08:00:24;;;;;;;16.92;8.65;;;;;;;4.80;100.00;101504.75;5091684;28;20545;-73
2021/11/09 08:06:05;;;;;;;16.20;8.80;;;;;;;4.98;100.00;101519.44;5086361;28;20493;-74
2021/11/09 08:08:38;;;;;;;14.80;8.20;;;;;;;5.15;100.00;101518.25;5093310;28;20075;-76
2021/11/09 08:11:08;;;;;;;18.15;9.10;;;;;;;5.18;100.00;101518.19;5093205;28;20044;-74
2021/11/09 08:13:37;;;;;;;18.42;10.10;;;;;;;5.30;100.00;101526.81;5092646;28;20078;-75
2021/11/09 08:16:06;;;;;;;16.55;8.50;;;;;;;5.47;100.00;101530.03;5082286;28;20508;-72
2021/11/09 08:18:36;;;;;;;19.67;9.00;;;;;;;5.65;100.00;101524.38;5082598;28;20036;-75
2021/11/09 08:21:07;;;;;;;21.25;9.77;;;;;;;5.72;100.00;101531.31;5092660;28;20086;-75
2021/11/09 08:23:36;;;;;;;14.30;7.40;;;;;;;5.89;100.00;101536.25;5092082;28;20393;-69
2021/11/09 08:26:05;;;;;;;16.75;7.57;;;;;;;5.93;100.00;101537.97;5092319;28;20465;-72
2021/11/09 08:28:36;;;;;;;13.73;6.93;;;;;;;5.99;100.00;101548.44;5091783;28;20054;-70
2021/11/09 08:31:07;;;;;;;11.48;6.50;;;;;;;6.05;100.00;101544.78;5092631;28;20052;-71
2021/11/09 08:33:38;;;;;;;12.38;6.38;;;;;;;6.22;100.00;101552.38;5092040;28;20440;-70
2021/11/09 08:36:09;;;;;;;13.23;7.15;;;;;;;6.23;100.00;101556.75;5092844;28;20044;-73
2021/11/09 08:38:39;;;;;;;14.00;7.28;;;;;;;6.24;100.00;101555.84;5091131;28;20497;-72
2021/11/09 08:41:09;;;;;;;16.48;7.45;;;;;;;6.13;100.00;101564.03;5092481;28;20119;-73
2021/11/09 08:43:39;;;;;;;12.82;6.93;;;;;;;6.32;100.00;101565.38;5092137;28;20048;-71
2021/11/09 08:46:15;;;;;;;14.15;8.10;;;;;;;6.31;100.00;101568.06;5092623;28;20051;-71
2021/11/09 08:48:47;;;;;;;12.60;7.88;;;;;;;6.43;100.00;101575.75;5091856;28;20136;-71
2021/11/09 08:51:16;;;;;;;15.73;7.70;;;;;;;6.43;100.00;101572.22;5092907;28;20036;-71
2021/11/09 08:53:52;;;;;;;14.30;7.97;;;;;;;6.38;100.00;101580.28;5090635;28;20056;-71
2021/11/09 08:56:33;;;;;;;14.05;7.55;;;;;;;6.57;100.00;101591.38;5092985;28;20055;-70
2021/11/09 09:04:31;;;;;;;11.45;7.10;;;;;;;6.69;100.00;101593.72;5091873;28;20077;-70
2021/11/09 09:07:03;;;;;;;14.95;7.55;;;;;;;6.86;100.00;101596.88;5092407;28;20043;-70
2021/11/09 09:09:31;;;;;;;13.27;7.85;;;;;;;6.88;100.00;101600.34;5092319;28;20102;-68
2021/11/09 09:12:01;;;;;;;13.40;6.78;;;;;;;6.77;100.00;101598.88;5091743;28;20523;-67
2021/11/09 09:14:30;;;;;;;13.98;6.95;;;;;;;6.95;100.00;101601.09;5091658;28;20076;-68
2021/11/09 09:16:59;;;;;;;13.77;7.05;;;;;;;6.93;100.00;101594.06;5091976;28;20040;-71
2021/11/09 09:19:29;;;;;;;13.35;7.35;;;;;;;6.92;100.00;101603.78;5092489;28;20037;-69
2021/11/09 09:22:06;;;;;;;11.77;7.18;;;;;;;6.97;100.00;101609.00;5092004;28;20103;-68
2021/11/09 09:24:47;;;;;;;12.55;7.10;;;;;;;7.08;100.00;101609.63;5090604;28;20040;-71
2021/11/09 09:27:23;;;;;;;11.02;7.05;;;;;;;7.01;100.00;101608.03;5091827;28;20044;-70
2021/11/09 09:30:04;;;;;;;14.23;7.40;;;;;;;7.12;100.00;101617.47;5091315;28;20044;-70
2021/11/09 09:32:53;;;;;;;15.68;7.28;;;;;;;7.51;100.00;101613.84;5091682;28;20044;-70
2021/11/09 09:57:36;;;;;;;12.95;6.75;;;;;;;7.44;100.00;101635.25;5090146;28;20084;-71
2021/11/09 10:00:07;;;;;;;11.95;7.25;;;;;;;7.62;100.00;101630.38;5092611;28;20470;-68
2021/11/09 10:02:48;;;;;;;13.73;6.55;;;;;;;7.65;100.00;101632.97;5094422;28;20044;-71
2021/11/09 10:05:17;;;;;;;11.00;7.03;;;;;;;7.68;100.00;101633.75;5095427;28;20043;-70
2021/11/09 10:07:51;;;;;;;12.15;7.15;;;;;;;7.83;100.00;101637.78;5094582;28;20143;-70
2021/11/09 10:10:24;;;;;;;;;;;;;;;7.99;100.00;101632.91;5095884;28;20161;-71
2021/11/09 10:13:02;;;;;;;11.25;6.90;;;;;;;7.82;100.00;101641.38;5094927;28;19924;-70
2021/11/09 10:15:33;;;;;;;12.07;6.90;;;;;;;8.14;100.00;101648.44;5094509;28;20044;-71
2021/11/09 10:18:05;;;;;;;13.65;7.55;;;;;;;8.12;100.00;101649.41;5095348;28;20040;-68
2021/11/09 10:20:36;;;;;;;9.98;6.25;;;;;;;8.16;100.00;101643.09;5094894;28;20453;-73
2021/11/09 10:23:08;;;;;;;10.25;6.43;;;;;;;8.45;99.44;101644.94;5094971;28;20068;-72
2021/11/09 10:25:37;;;;;;;13.32;7.30;;;;;;;8.32;99.66;101647.06;5093561;28;20046;-70
2021/11/09 10:28:15;;;;;;;15.30;7.40;;;;;;;8.01;100.00;101644.41;5094888;28;20408;-70
2021/11/09 10:30:47;;;;;;;11.60;6.90;;;;;;;7.97;100.00;101640.06;5094901;28;20553;-68
2021/11/09 10:33:19;;;;;;;11.00;6.78;;;;;;;8.16;100.00;101651.06;5094903;28;20044;-72
2021/11/09 10:35:48;;;;;;;12.60;6.40;;;;;;;8.28;100.00;101651.56;5094766;28;20064;-72
2021/11/09 10:38:16;;;;;;;13.07;6.38;;;;;;;8.62;98.37;101657.75;5094685;28;20047;-68
2021/11/09 10:40:48;;;;;;;14.30;6.55;;;;;;;8.39;98.16;101669.91;5093255;28;20135;-70
2021/11/09 10:43:22;;;;;;;11.60;5.68;;;;;;;8.19;98.44;101666.91;5094450;28;20036;-69
2021/11/09 10:45:51;;;;;;;11.00;5.97;;;;;;;8.07;99.79;101653.97;5094544;28;20040;-73
2021/11/09 10:48:23;;;;;;;11.15;6.15;;;;;;;8.10;99.00;101662.72;5094973;28;20040;-67
2021/11/09 10:50:54;;;;;;;10.35;6.47;;;;;;;8.30;97.89;101664.84;5094566;28;20453;-67
2021/11/09 10:53:31;;;;;;;13.02;7.00;;;;;;;8.23;98.55;101653.50;5094481;28;20062;-70
2021/11/09 10:56:12;;;;;;;9.38;6.32;;;;;;;8.09;100.00;101660.97;5094331;28;20044;-69
2021/11/09 10:58:57;;;;;;;10.70;6.60;;;;;;;8.26;98.51;101658.72;5093828;28;20040;-69
2021/11/09 11:04:13;;;;;;;11.25;5.97;;;;;;;7.99;100.00;101646.19;5094039;28;20040;-69
2021/11/09 11:06:44;;;;;;;10.68;6.63;;;;;;;8.01;100.00;101660.34;5093997;28;20126;-68
2021/11/09 11:09:19;;;;;;;11.75;5.68;;;;;;;8.02;99.77;101660.28;5094395;28;20054;-69
2021/11/09 11:12:09;;;;;;;12.43;6.45;;;;;;;8.62;95.45;101660.41;5094284;28;20119;-69
2021/11/09 11:14:40;;;;;;;13.05;6.30;;;;;;;8.74;94.27;101662.69;5094063;28;20043;-77
2021/11/09 11:17:10;;;;;;;14.07;7.20;;;;;;;8.78;94.56;101657.25;5094355;28;20467;-71
2021/11/09 11:19:40;;;;;;;11.70;6.25;;;;;;;8.67;94.88;101659.34;5088365;28;20040;-75
2021/11/09 11:22:11;;;;;;;15.52;6.78;;;;;;;8.52;96.71;101660.69;5073135;28;20402;-73
2021/11/09 11:24:41;;;;;;;14.50;6.60;;;;;;;8.38;97.45;101665.50;5072424;28;20045;-74
2021/11/09 11:27:12;;;;;;;12.60;6.72;;;;;;;8.33;98.63;101665.63;5072991;28;20128;-72
2021/11/09 11:29:41;;;;;;;13.35;7.03;;;;;;;8.63;97.51;101662.16;5091257;28;20393;-72
2021/11/09 11:32:13;;;;;;;11.13;6.88;;;;;;;8.92;95.59;101662.13;5092557;28;20412;-73
2021/11/09 11:34:42;;;;;;;11.38;6.82;;;;;;;9.29;93.60;101658.31;5092897;28;20044;-71
2021/11/09 11:37:10;;;;;;;13.60;7.70;;;;;;;9.16;94.41;101657.81;5091846;28;20054;-69
2021/11/09 11:39:41;;;;;;;12.93;8.10;;;;;;;8.93;96.42;101663.88;5093002;28;20044;-74
2021/11/09 11:42:17;;;;;;;15.65;8.02;;;;;;;8.81;97.08;101659.81;5092957;28;20123;-70
2021/11/09 11:44:56;;;;;;;12.32;6.90;;;;;;;8.67;98.45;101656.66;5092867;28;20427;-71
2021/11/09 11:47:25;;;;;;;13.25;7.53;;;;;;;8.81;97.26;101654.47;5093182;28;20036;-72
2021/11/09 11:49:57;;;;;;;12.73;7.65;;;;;;;8.85;97.68;101653.47;5091235;28;20032;-69
2021/11/09 11:52:31;;;;;;;12.63;7.07;;;;;;;8.93;96.12;101661.22;5092480;28;20060;-70
2021/11/09 11:55:03;;;;;;;;;;;;;;;8.89;97.26;101654.25;5093607;28;20065;-70
2021/11/09 11:57:45;;;;;;;11.98;6.60;;;;;;;8.97;95.80;101652.19;5093176;28;20365;-71
2021/11/09 12:00:42;;;;;;;10.65;5.93;;;;;;;8.96;93.34;101660.22;5092650;28;20048;-70
2021/11/09 12:03:34;;;;;;;17.15;6.75;;;;;;;8.79;94.79;101661.66;5092622;28;20126;-70
2021/11/09 12:06:15;;;;;;;12.25;6.53;;;;;;;8.79;95.55;101652.78;5092844;28;20037;-71
2021/11/09 12:08:49;;;;;;;16.60;7.40;;;;;;;8.86;94.88;101662.31;5092828;28;20040;-71
2021/11/09 12:11:47;;;;;;;14.20;7.35;;;;;;;8.98;94.52;101664.63;5092859;28;20450;-70
2021/11/09 12:14:18;;;;;;;13.40;6.85;;;;;;;9.19;93.88;101660.41;5050372;28;20045;-71
2021/11/09 12:16:53;;;;;;;13.95;6.63;;;;;;;9.34;91.29;101662.53;5083621;28;20447;-72
2021/11/09 12:19:47;;;;;;;12.75;6.57;;;;;;;9.45;90.27;101668.38;5092003;28;20115;-71
2021/11/09 12:22:17;;;;;;;11.95;6.43;;;;;;;9.42;90.26;101667.63;5092774;28;20047;-73
2021/11/09 12:24:51;;;;;;;11.73;6.13;;;;;;;9.64;89.74;101670.44;5095111;28;20439;-73
2021/11/09 12:27:20;;;;;;;12.32;6.13;;;;;;;9.50;89.53;101668.25;5092845;28;20051;-73
2021/11/09 12:29:52;;;;;;;14.80;7.10;;;;;;;9.52;88.95;101670.84;5092117;28;20040;-74
2021/11/09 12:32:40;;;;;;;16.03;6.90;;;;;;;9.53;88.86;101678.78;5091439;28;20064;-72
2021/11/09 12:35:22;;;;;;;11.27;6.68;;;;;;;9.33;89.54;101675.91;5091364;28;20284;-74
2021/11/09 12:38:09;;;;;;;13.68;7.05;;;;;;;9.22;89.83;101680.72;5090282;28;20149;-73
2021/11/09 12:40:39;;;;;;;14.73;6.93;;;;;;;9.23;89.67;101679.78;5092592;28;20392;-75
2021/11/09 12:43:13;;;;;;;12.57;7.00;;;;;;;9.21;89.78;101686.97;5092266;28;20079;-73
2021/11/09 12:45:45;;;;;;;12.30;7.28;;;;;;;9.10;90.54;101692.63;5090672;28;20054;-72
2021/11/09 12:48:17;;;;;;;14.20;7.00;;;;;;;9.09;90.46;101693.56;5088932;28;20047;-73
2021/11/09 12:50:50;;;;;;;13.07;6.22;;;;;;;9.36;87.75;101686.47;5092398;28;20400;-76
2021/11/09 12:53:21;;;;;;;15.98;7.05;;;;;;;9.33;87.57;101690.09;5091621;28;20514;-73
2021/11/09 12:56:06;;;;;;;13.02;6.50;;;;;;;9.59;85.99;101689.25;5092138;28;20044;-70
2021/11/09 12:58:37;;;;;;;10.65;6.28;;;;;;;9.46;86.75;101694.13;5091666;28;20067;-75
2021/11/09 13:01:25;;;;;;;12.38;5.95;;;;;;;9.56;86.48;101691.16;5091883;28;20151;-69
2021/11/09 13:04:09;;;;;;;11.32;6.40;;;;;;;9.34;88.21;101698.97;5091583;28;20123;-69
2021/11/09 13:09:40;;;;;;;11.98;6.18;;;;;;;9.15;88.96;101707.53;5089188;28;20060;-69
2021/11/09 13:12:13;;;;;;;11.27;7.15;;;;;;;9.25;89.99;101704.56;5089931;28;20051;-75
2021/11/09 13:14:44;;;;;;;13.70;7.55;;;;;;;9.15;90.51;101704.84;5091130;28;20048;-73
2021/11/09 13:17:39;;;;;;;12.82;7.13;;;;;;;9.36;89.18;101710.41;5091631;28;20051;-72